createdAt,value
2018-10-17T00:02:27.452Z,91.79
2018-10-17T00:05:51.996Z,91.56
2018-10-17T00:08:20.332Z,92.53
2018-10-17T00:10:48.696Z,92.15
2018-10-17T00:13:17.745Z,92.24
2018-10-17T00:15:46.180Z,92.40
2018-10-17T00:18:14.530Z,92.61
2018-10-17T00:20:42.857Z,92.50
2018-10-17T00:23:11.274Z,92.56
2018-10-17T00:25:42.700Z,92.45
2018-10-17T00:28:11.071Z,92.45
2018-10-17T00:30:40.460Z,92.09
2018-10-17T00:33:08.824Z,92.12
2018-10-17T00:35:37.192Z,92.56
2018-10-17T00:38:06.764Z,92.84
2018-10-17T00:40:35.201Z,92.90
2018-10-17T00:43:03.545Z,92.46
2018-10-17T00:45:31.873Z,92.91
2018-10-17T00:48:00.259Z,93.64
2018-10-17T00:50:28.587Z,93.89
2018-10-17T00:52:57.053Z,93.29
2018-10-17T00:55:25.307Z,93.45
2018-10-17T00:57:53.653Z,93.27
2018-10-17T01:00:22.213Z,93.43
2018-10-17T01:02:50.574Z,93.03
2018-10-17T01:05:19.911Z,93.66
2018-10-17T01:07:48.313Z,93.51
2018-10-17T01:10:16.708Z,93.17
2018-10-17T01:12:45.100Z,93.42
2018-10-17T01:15:13.516Z,93.45
2018-10-17T01:17:42.363Z,93.49
2018-10-17T01:20:10.825Z,93.33
2018-10-17T01:22:39.445Z,93.52
2018-10-17T01:25:07.982Z,93.31
2018-10-17T01:27:36.321Z,93.63
2018-10-17T01:30:05.310Z,93.90
2018-10-17T01:32:33.701Z,94.11
2018-10-17T01:35:02.147Z,94.44
2018-10-17T01:37:31.769Z,94.46
2018-10-17T01:40:00.126Z,94.17
2018-10-17T01:42:28.501Z,94.46
2018-10-17T01:44:57.053Z,93.85
2018-10-17T01:47:25.418Z,94.47
2018-10-17T01:49:54.858Z,94.16
2018-10-17T01:52:23.253Z,94.42
2018-10-17T01:54:51.621Z,94.15
2018-10-17T01:57:19.972Z,93.95
2018-10-17T01:59:49.365Z,94.53
2018-10-17T02:02:17.752Z,94.49
2018-10-17T02:04:46.113Z,94.23
2018-10-17T02:07:14.707Z,93.80
2018-10-17T02:09:43.001Z,93.84
2018-10-17T02:12:11.407Z,93.49
2018-10-17T02:14:39.822Z,93.63
2018-10-17T02:17:08.275Z,93.59
2018-10-17T02:19:36.624Z,93.15
2018-10-17T02:22:05.096Z,93.14
2018-10-17T02:24:33.485Z,92.46
2018-10-17T02:27:02.888Z,92.44
2018-10-17T02:29:31.264Z,92.81
2018-10-17T02:31:59.626Z,92.52
2018-10-17T02:34:27.957Z,92.41
2018-10-17T02:36:56.308Z,92.83
2018-10-17T02:39:24.696Z,92.59
2018-10-17T02:41:53.028Z,92.43
2018-10-17T02:44:22.476Z,93.05
2018-10-17T02:46:50.821Z,92.92
2018-10-17T02:49:20.239Z,92.65
2018-10-17T02:51:48.601Z,93.07
2018-10-17T02:54:16.961Z,93.02
2018-10-17T02:56:45.286Z,92.47
2018-10-17T02:59:13.687Z,93.03
2018-10-17T03:01:42.092Z,92.99
2018-10-17T03:04:14.905Z,93.15
2018-10-17T03:06:43.250Z,92.49
2018-10-17T03:09:11.636Z,93.26
2018-10-17T03:11:39.989Z,94.25
2018-10-17T03:14:08.367Z,93.27
2018-10-17T03:16:36.813Z,92.61
2018-10-17T03:19:05.508Z,93.36
2018-10-17T03:21:33.842Z,92.60
2018-10-17T03:24:02.180Z,92.97
2018-10-17T03:26:30.504Z,93.00
2018-10-17T03:28:58.913Z,92.71
2018-10-17T03:31:27.376Z,92.95
2018-10-17T03:33:55.592Z,92.99
2018-10-17T03:36:23.930Z,93.43
2018-10-17T03:38:54.398Z,93.39
2018-10-17T03:41:23.856Z,93.15
2018-10-17T03:43:52.250Z,93.24
2018-10-17T03:46:20.623Z,92.93
2018-10-17T03:48:49.012Z,92.20
2018-10-17T03:51:18.586Z,92.52
2018-10-17T03:53:46.939Z,90.00
2018-10-17T03:56:15.285Z,91.60
2018-10-17T03:58:43.636Z,91.80
2018-10-17T04:01:12.059Z,91.86
2018-10-17T04:03:40.326Z,91.66
2018-10-17T04:06:08.693Z,91.55
2018-10-17T04:08:37.064Z,92.01
2018-10-17T04:11:05.833Z,91.76
2018-10-17T04:13:34.110Z,92.05
2018-10-17T04:16:02.479Z,92.32
2018-10-17T04:18:31.932Z,91.95
2018-10-17T04:21:00.305Z,92.27
2018-10-17T04:23:28.690Z,93.00
2018-10-17T04:25:57.082Z,92.75
2018-10-17T04:28:31.424Z,93.11
2018-10-17T04:30:59.790Z,93.42
2018-10-17T04:33:28.157Z,93.43
2018-10-17T04:35:56.525Z,93.67
2018-10-17T04:38:24.901Z,94.32
2018-10-17T04:40:53.292Z,94.02
2018-10-17T04:43:24.488Z,93.99
2018-10-17T04:45:55.120Z,94.32
2018-10-17T04:48:24.529Z,94.00
2018-10-17T04:50:54.134Z,93.98
2018-10-17T04:53:22.505Z,93.96
2018-10-17T04:59:02.240Z,94.83
2018-10-17T05:01:30.502Z,94.61
2018-10-17T05:03:58.877Z,95.15
2018-10-17T05:06:27.237Z,95.29
2018-10-17T05:08:55.625Z,94.51
2018-10-17T05:12:49.501Z,94.62
2018-10-17T05:15:17.896Z,95.14
2018-10-17T05:17:46.223Z,94.70
2018-10-17T05:20:14.561Z,94.32
2018-10-17T05:22:42.896Z,94.66
2018-10-17T05:25:11.240Z,94.59
2018-10-17T05:27:39.548Z,94.75
2018-10-17T05:30:08.024Z,94.40
2018-10-17T05:32:36.348Z,94.39
2018-10-17T05:35:05.175Z,94.25
2018-10-17T05:37:33.586Z,94.27
2018-10-17T05:40:01.857Z,94.07
2018-10-17T05:42:30.245Z,94.34
2018-10-17T05:44:58.646Z,94.35
2018-10-17T05:47:27.000Z,94.26
2018-10-17T05:49:55.348Z,94.25
2018-10-17T05:52:23.700Z,94.20
2018-10-17T05:54:52.071Z,94.56
2018-10-17T05:57:20.445Z,94.42
2018-10-17T05:59:48.819Z,94.02
2018-10-17T06:02:22.461Z,93.99
2018-10-17T06:04:51.013Z,93.72
2018-10-17T06:07:19.375Z,93.14
2018-10-17T06:09:47.864Z,92.98
2018-10-17T06:12:17.439Z,92.78
2018-10-17T06:14:45.768Z,91.83
2018-10-17T06:17:17.501Z,91.30
2018-10-17T06:19:46.985Z,90.93
2018-10-17T06:22:15.367Z,90.67
2018-10-17T06:24:43.732Z,90.52
2018-10-17T06:27:12.248Z,90.10
2018-10-17T06:29:40.765Z,90.12
2018-10-17T06:32:09.160Z,89.51
2018-10-17T06:34:37.897Z,88.74
2018-10-17T06:37:07.657Z,88.81
2018-10-17T06:39:36.724Z,88.14
2018-10-17T06:42:05.696Z,88.11
2018-10-17T06:44:34.042Z,88.25
2018-10-17T06:47:02.437Z,87.77
2018-10-17T06:49:30.771Z,87.84
2018-10-17T06:51:59.137Z,86.69
2018-10-17T06:54:27.727Z,86.30
2018-10-17T06:56:56.041Z,85.58
2018-10-17T06:59:24.419Z,85.02
2018-10-17T07:01:53.223Z,84.72
2018-10-17T07:04:21.602Z,83.78
2018-10-17T07:06:50.085Z,83.37
2018-10-17T07:09:18.452Z,82.61
2018-10-17T07:11:46.852Z,81.69
2018-10-17T07:14:15.197Z,80.07
2018-10-17T07:16:43.636Z,78.75
2018-10-17T07:19:13.189Z,77.49
2018-10-17T07:21:41.445Z,77.26
2018-10-17T07:24:10.809Z,76.92
2018-10-17T07:26:39.184Z,76.24
2018-10-17T07:29:07.642Z,75.74
2018-10-17T07:31:36.998Z,75.37
2018-10-17T07:34:05.407Z,74.42
2018-10-17T07:36:33.859Z,74.13
2018-10-17T07:39:03.725Z,74.09
2018-10-17T07:41:32.130Z,73.67
2018-10-17T07:44:00.484Z,72.91
2018-10-17T07:46:29.460Z,71.48
2018-10-17T07:48:58.921Z,71.23
2018-10-17T07:51:28.309Z,70.26
2018-10-17T07:53:57.775Z,69.94
2018-10-17T07:56:26.161Z,69.27
2018-10-17T07:58:56.540Z,68.75
2018-10-17T08:01:25.905Z,68.32
2018-10-17T08:03:58.624Z,67.87
2018-10-17T08:06:27.437Z,67.79
2018-10-17T08:08:56.781Z,67.31
2018-10-17T08:11:26.194Z,67.21
2018-10-17T08:13:54.577Z,66.12
2018-10-17T08:16:22.921Z,65.71
2018-10-17T08:18:51.283Z,65.59
2018-10-17T08:21:21.030Z,65.32
2018-10-17T08:23:49.399Z,65.69
2018-10-17T08:26:17.754Z,65.68
2018-10-17T08:28:47.195Z,65.55
2018-10-17T08:31:15.569Z,64.86
2018-10-17T08:33:43.932Z,65.47
2018-10-17T08:36:12.631Z,64.64
2018-10-17T08:38:40.685Z,65.78
2018-10-17T08:41:09.144Z,65.87
2018-10-17T08:43:39.313Z,64.46
2018-10-17T08:46:07.708Z,63.04
2018-10-17T08:48:38.125Z,63.04
2018-10-17T08:51:06.535Z,62.69
2018-10-17T08:53:34.877Z,62.79
2018-10-17T08:56:03.254Z,63.42
2018-10-17T08:58:31.609Z,63.36
2018-10-17T09:00:59.981Z,62.62
2018-10-17T09:03:28.328Z,62.84
2018-10-17T09:05:57.719Z,61.83
2018-10-17T09:08:26.114Z,63.06
2018-10-17T09:10:54.474Z,62.44
2018-10-17T09:13:22.851Z,61.36
2018-10-17T09:15:52.273Z,60.74
2018-10-17T09:18:20.657Z,60.39
2018-10-17T09:20:49.288Z,59.58
2018-10-17T09:23:17.293Z,59.93
2018-10-17T09:25:45.777Z,58.98
2018-10-17T09:28:15.108Z,57.98
2018-10-17T09:30:43.537Z,57.18
2018-10-17T09:33:11.976Z,56.34
2018-10-17T09:35:40.313Z,55.91
2018-10-17T09:38:08.691Z,55.70
2018-10-17T09:40:37.005Z,56.32
2018-10-17T09:43:05.621Z,55.89
2018-10-17T09:45:33.967Z,57.34
2018-10-17T09:48:02.375Z,57.20
2018-10-17T09:50:30.736Z,57.34
2018-10-17T09:52:59.169Z,57.49
2018-10-17T09:55:27.517Z,57.90
2018-10-17T09:57:55.917Z,57.66
2018-10-17T10:00:29.543Z,56.55
2018-10-17T10:02:59.605Z,57.00
2018-10-17T10:05:27.982Z,56.41
2018-10-17T10:07:56.352Z,56.49
2018-10-17T10:10:24.689Z,56.93
2018-10-17T10:12:53.034Z,57.00
2018-10-17T10:15:21.523Z,56.52
2018-10-17T10:17:49.829Z,54.72
2018-10-17T10:20:18.197Z,56.44
2018-10-17T10:24:12.291Z,55.31
2018-10-17T10:26:40.638Z,55.45
2018-10-17T10:29:09.090Z,53.94
2018-10-17T10:31:37.477Z,54.61
2018-10-17T10:34:06.061Z,53.07
2018-10-17T10:36:34.393Z,53.52
2018-10-17T10:39:02.888Z,53.21
2018-10-17T10:41:32.297Z,52.88
2018-10-17T10:44:00.807Z,51.72
2018-10-17T10:46:30.198Z,52.11
2018-10-17T10:48:58.727Z,52.75
2018-10-17T10:51:27.259Z,53.05
2018-10-17T10:53:55.710Z,52.63
2018-10-17T10:56:24.093Z,51.20
2018-10-17T10:58:52.710Z,51.50
2018-10-17T11:01:21.397Z,52.12
2018-10-17T11:03:49.734Z,51.32
2018-10-17T11:06:18.198Z,50.29
2018-10-17T11:08:46.809Z,48.90
2018-10-17T11:11:15.329Z,49.82
2018-10-17T11:13:44.868Z,50.41
2018-10-17T11:16:13.229Z,49.76
2018-10-17T11:18:41.667Z,49.32
2018-10-17T11:21:10.054Z,48.38
2018-10-17T11:23:38.524Z,46.91
2018-10-17T11:26:07.081Z,46.88
2018-10-17T11:28:35.449Z,47.34
2018-10-17T11:31:03.823Z,46.63
2018-10-17T11:33:32.193Z,46.81
2018-10-17T11:36:00.553Z,46.40
2018-10-17T11:38:28.897Z,46.57
2018-10-17T11:40:57.288Z,47.41
2018-10-17T11:43:25.645Z,47.08
2018-10-17T11:45:53.996Z,46.24
2018-10-17T11:48:22.364Z,45.77
2018-10-17T11:50:50.720Z,45.39
2018-10-17T11:53:19.093Z,45.03
2018-10-17T11:55:47.458Z,44.63
2018-10-17T11:58:15.821Z,45.54
2018-10-17T12:00:44.165Z,46.00
2018-10-17T12:03:12.640Z,46.30
2018-10-17T12:05:41.279Z,45.94
2018-10-17T12:08:09.331Z,44.72
2018-10-17T12:10:37.698Z,44.01
2018-10-17T12:13:09.102Z,44.90
2018-10-17T12:15:42.046Z,44.97
2018-10-17T12:18:10.720Z,44.26
2018-10-17T12:20:38.972Z,43.96
2018-10-17T12:23:07.356Z,45.43
2018-10-17T12:25:35.716Z,43.76
2018-10-17T12:28:04.214Z,44.16
2018-10-17T12:30:32.493Z,43.12
2018-10-17T12:33:00.884Z,43.23
2018-10-17T12:35:29.268Z,44.45
2018-10-17T12:37:57.600Z,43.43
2018-10-17T12:40:26.081Z,43.43
2018-10-17T12:50:02.468Z,43.00
2018-10-17T12:52:31.376Z,43.79
2018-10-17T12:54:59.655Z,42.71
2018-10-17T12:57:28.212Z,43.45
2018-10-17T12:59:57.780Z,43.93
2018-10-17T13:02:26.128Z,43.39
2018-10-17T13:04:54.518Z,42.41
2018-10-17T13:07:23.000Z,41.50
2018-10-17T13:09:51.349Z,43.49
2018-10-17T13:12:19.752Z,42.90
2018-10-17T13:14:48.203Z,41.38
2018-10-17T13:17:16.599Z,40.56
2018-10-17T13:19:45.188Z,41.23
2018-10-17T13:22:13.504Z,41.20
2018-10-17T13:24:41.994Z,41.68
2018-10-17T13:27:11.312Z,41.51
2018-10-17T13:29:39.645Z,42.18
2018-10-17T13:32:07.995Z,42.29
2018-10-17T13:34:36.647Z,43.22
2018-10-17T13:37:05.394Z,43.42
2018-10-17T13:39:33.695Z,42.95
2018-10-17T13:42:02.197Z,42.58
2018-10-17T13:44:30.453Z,42.84
2018-10-17T13:46:58.925Z,43.16
2018-10-17T13:49:27.414Z,42.72
2018-10-17T13:51:55.760Z,42.78
2018-10-17T13:54:24.084Z,43.60
2018-10-17T13:56:52.432Z,43.75
2018-10-17T13:59:21.052Z,43.59
2018-10-17T14:01:51.409Z,43.26
2018-10-17T14:04:19.809Z,43.43
2018-10-17T14:06:48.140Z,43.17
2018-10-17T14:09:16.543Z,43.99
2018-10-17T14:11:44.861Z,43.64
2018-10-17T14:14:13.202Z,43.06
2018-10-17T14:16:41.549Z,43.65
2018-10-17T14:19:09.930Z,43.62
2018-10-17T14:21:39.318Z,43.15
2018-10-17T14:24:07.723Z,42.58
2018-10-17T14:26:36.070Z,43.56
2018-10-17T14:29:04.454Z,43.00
2018-10-17T14:31:32.841Z,43.06
2018-10-17T14:34:01.218Z,42.82
2018-10-17T14:36:29.694Z,43.63
2018-10-17T14:38:58.054Z,43.41
2018-10-17T14:41:26.469Z,43.22
2018-10-17T14:43:54.809Z,43.93
2018-10-17T14:46:23.153Z,44.88
2018-10-17T14:48:51.525Z,44.54
2018-10-17T14:54:10.550Z,44.24
2018-10-17T14:56:38.834Z,45.10
2018-10-17T14:59:07.148Z,45.32
2018-10-17T15:01:35.612Z,45.50
2018-10-17T15:04:03.995Z,45.89
2018-10-17T15:06:32.453Z,46.70
2018-10-17T15:09:00.789Z,47.13
2018-10-17T15:11:29.104Z,48.10
2018-10-17T15:13:57.362Z,48.64
2018-10-17T15:16:25.670Z,48.57
2018-10-17T15:18:53.961Z,49.25
2018-10-17T15:21:22.250Z,49.02
2018-10-17T15:23:50.552Z,49.89
2018-10-17T15:26:18.897Z,49.68
2018-10-17T15:28:47.194Z,50.47
2018-10-17T15:31:15.495Z,51.34
2018-10-17T15:33:43.782Z,51.99
2018-10-17T15:36:12.092Z,52.89
2018-10-17T15:38:40.362Z,52.92
2018-10-17T15:41:08.646Z,53.63
2018-10-17T15:43:36.975Z,54.66
2018-10-17T15:46:05.906Z,54.69
2018-10-17T15:48:34.272Z,55.53
2018-10-17T15:51:02.580Z,56.01
2018-10-17T15:53:30.950Z,56.38
2018-10-17T15:55:59.185Z,56.75
2018-10-17T15:58:27.494Z,56.47
2018-10-17T16:00:55.857Z,56.83
2018-10-17T16:03:24.094Z,57.95
2018-10-17T16:05:52.467Z,57.63
2018-10-17T16:08:20.811Z,57.52
2018-10-17T16:10:49.087Z,58.59
2018-10-17T16:13:17.370Z,59.46
2018-10-17T16:15:45.657Z,59.81
2018-10-17T16:18:14.055Z,60.22
2018-10-17T16:20:43.322Z,60.33
2018-10-17T16:23:11.666Z,61.11
2018-10-17T16:25:39.930Z,61.51
2018-10-17T16:28:08.234Z,61.71
2018-10-17T16:30:36.681Z,62.27
2018-10-17T16:33:04.928Z,62.82
2018-10-17T16:35:33.233Z,63.66
2018-10-17T16:38:01.697Z,64.09
2018-10-17T16:40:29.954Z,63.35
2018-10-17T16:42:58.247Z,65.32
2018-10-17T16:45:26.526Z,66.01
2018-10-17T16:47:54.907Z,66.13
2018-10-17T16:50:23.326Z,66.77
2018-10-17T16:52:51.569Z,68.01
2018-10-17T16:55:21.970Z,67.66
2018-10-17T16:57:51.191Z,68.85
2018-10-17T17:00:19.626Z,68.90
2018-10-17T17:02:47.897Z,69.25
2018-10-17T17:05:16.243Z,70.18
2018-10-17T17:07:44.731Z,70.57
2018-10-17T17:10:14.010Z,70.48
2018-10-17T17:12:42.359Z,70.95
2018-10-17T17:15:11.049Z,70.54
2018-10-17T17:17:39.311Z,70.29
2018-10-17T17:20:09.342Z,69.96
2018-10-17T17:22:37.974Z,69.60
2018-10-17T17:25:06.737Z,69.98
2018-10-17T17:27:35.110Z,68.50
2018-10-17T17:30:03.518Z,68.52
2018-10-17T17:32:31.778Z,68.99
2018-10-17T17:35:00.110Z,68.89
2018-10-17T17:37:28.406Z,68.96
2018-10-17T17:39:56.726Z,69.74
2018-10-17T17:42:25.043Z,69.23
2018-10-17T17:44:53.359Z,69.68
2018-10-17T17:47:21.685Z,70.20
2018-10-17T17:49:49.995Z,69.95
2018-10-17T17:52:18.342Z,70.55
2018-10-17T17:54:46.736Z,70.16
2018-10-17T17:57:15.078Z,69.95
2018-10-17T17:59:43.386Z,70.48
2018-10-17T18:02:11.682Z,70.99
2018-10-17T18:04:39.990Z,71.21
2018-10-17T18:07:08.318Z,71.16
2018-10-17T18:09:36.623Z,71.96
2018-10-17T18:12:05.338Z,72.19
2018-10-17T18:14:33.642Z,71.99
2018-10-17T18:17:01.998Z,72.42
2018-10-17T18:19:30.302Z,72.99
2018-10-17T18:21:58.626Z,73.08
2018-10-17T18:24:26.913Z,73.60
2018-10-17T18:26:55.250Z,73.54
2018-10-17T18:29:23.545Z,73.82
2018-10-17T18:31:51.847Z,74.24
2018-10-17T18:34:20.326Z,74.89
2018-10-17T18:36:49.598Z,75.74
2018-10-17T18:39:17.902Z,76.24
2018-10-17T18:41:46.218Z,76.76
2018-10-17T18:44:14.550Z,76.34
2018-10-17T18:46:42.883Z,77.39
2018-10-17T18:49:11.197Z,77.65
2018-10-17T18:51:41.586Z,78.00
2018-10-17T18:54:10.802Z,78.32
2018-10-17T18:56:40.199Z,79.01
2018-10-17T18:59:08.502Z,79.36
2018-10-17T19:01:36.824Z,79.75
2018-10-17T19:04:05.606Z,79.94
2018-10-17T19:06:33.898Z,80.50
2018-10-17T19:09:02.267Z,80.88
2018-10-17T19:11:30.546Z,81.24
2018-10-17T19:13:59.014Z,80.61
2018-10-17T19:16:28.298Z,80.37
2018-10-17T19:18:56.583Z,81.02
2018-10-17T19:21:25.923Z,81.44
2018-10-17T19:23:54.223Z,81.98
2018-10-17T19:26:22.530Z,81.61
2018-10-17T19:28:50.963Z,81.81
2018-10-17T19:31:19.269Z,81.55
2018-10-17T19:33:47.598Z,81.51
2018-10-17T19:36:15.941Z,81.44
2018-10-17T19:38:44.234Z,82.42
2018-10-17T19:41:12.588Z,82.88
2018-10-17T19:43:40.882Z,83.31
2018-10-17T19:46:10.217Z,83.27
2018-10-17T19:48:38.631Z,83.54
2018-10-17T19:51:07.023Z,83.47
2018-10-17T19:53:35.238Z,84.04
2018-10-17T19:56:03.640Z,83.68
2018-10-17T19:58:32.002Z,83.56
2018-10-17T20:01:00.290Z,85.96
2018-10-17T20:03:29.634Z,86.39
2018-10-17T20:05:57.910Z,86.79
2018-10-17T20:08:26.221Z,87.26
2018-10-17T20:10:54.542Z,88.29
2018-10-17T20:13:22.846Z,87.97
2018-10-17T20:15:51.210Z,88.32
2018-10-17T20:18:19.546Z,88.53
2018-10-17T20:20:48.934Z,89.38
2018-10-17T20:23:19.263Z,89.69
2018-10-17T20:25:47.614Z,90.12
2018-10-17T20:28:15.938Z,90.13
2018-10-17T20:30:44.284Z,91.23
2018-10-17T20:33:12.651Z,92.52
2018-10-17T20:35:40.918Z,92.42
2018-10-17T20:38:09.200Z,92.72
2018-10-17T20:40:37.613Z,92.26
2018-10-17T20:43:05.935Z,94.73
2018-10-17T20:45:34.245Z,96.00
2018-10-17T20:48:02.638Z,95.98
2018-10-17T20:50:30.913Z,95.80
2018-10-17T20:52:59.198Z,96.06
2018-10-17T20:55:27.515Z,97.19
2018-10-17T20:57:55.855Z,97.54
2018-10-17T21:00:24.113Z,98.13
2018-10-17T21:02:52.397Z,98.43
2018-10-17T21:05:20.705Z,99.69
2018-10-17T21:07:49.006Z,99.30
2018-10-17T21:10:17.278Z,98.18
2018-10-17T21:12:47.648Z,99.20
2018-10-17T21:15:17.038Z,99.80
2018-10-17T21:17:45.386Z,99.89
2018-10-17T21:20:13.779Z,99.75
2018-10-17T21:22:42.059Z,100.00
2018-10-17T21:25:10.355Z,99.74
2018-10-17T21:27:38.722Z,98.81
2018-10-17T21:30:08.251Z,99.21
2018-10-17T21:32:36.578Z,98.54
2018-10-17T21:35:06.538Z,97.05
2018-10-17T21:37:35.246Z,96.51
2018-10-17T21:40:03.717Z,96.73
2018-10-17T21:42:32.083Z,96.65
2018-10-17T21:45:00.474Z,96.51
2018-10-17T21:47:28.886Z,95.23
2018-10-17T21:49:57.143Z,95.94
2018-10-17T21:52:25.565Z,95.54
2018-10-17T21:54:53.933Z,95.14
2018-10-17T21:57:22.226Z,95.76
2018-10-17T21:59:50.558Z,95.35
2018-10-17T22:02:18.890Z,96.24
2018-10-17T22:04:47.184Z,97.11
2018-10-17T22:07:15.522Z,96.99
2018-10-17T22:09:43.851Z,97.07
2018-10-17T22:12:12.110Z,97.45
2018-10-17T22:14:40.570Z,98.36
2018-10-17T22:17:08.853Z,99.26
2018-10-17T22:19:38.120Z,99.68
2018-10-17T22:22:07.070Z,99.88
2018-10-17T22:24:35.366Z,99.34
2018-10-17T22:27:03.881Z,100.00
2018-10-17T22:29:32.200Z,99.66
2018-10-17T22:32:00.512Z,99.67
2018-10-17T22:34:28.819Z,99.56
2018-10-17T22:36:57.099Z,99.66
2018-10-17T22:39:26.089Z,99.28
2018-10-17T22:41:54.434Z,99.16
2018-10-17T22:44:23.950Z,99.08
2018-10-17T22:46:52.245Z,98.84
2018-10-17T22:49:20.594Z,98.91
2018-10-17T22:51:49.944Z,99.64
2018-10-17T22:54:18.252Z,99.01
2018-10-17T22:56:46.538Z,99.09
2018-10-17T22:59:14.830Z,98.31
2018-10-17T23:01:43.145Z,98.33
2018-10-17T23:04:12.457Z,97.68
2018-10-17T23:06:40.748Z,97.82
2018-10-17T23:09:13.552Z,97.43
2018-10-17T23:11:42.527Z,97.13
2018-10-17T23:14:11.212Z,97.03
2018-10-17T23:16:40.701Z,96.80
2018-10-17T23:19:10.011Z,96.44
2018-10-17T23:21:38.298Z,96.55
2018-10-17T23:24:06.661Z,96.74
2018-10-17T23:26:36.051Z,96.63
2018-10-17T23:29:04.368Z,96.85
2018-10-17T23:31:32.657Z,97.07
2018-10-17T23:34:00.966Z,97.40
2018-10-17T23:36:29.261Z,97.84
2018-10-17T23:38:57.562Z,97.60
2018-10-17T23:41:25.932Z,98.35
2018-10-17T23:43:54.293Z,98.08
2018-10-17T23:46:22.654Z,98.39
2018-10-17T23:48:50.964Z,97.88
2018-10-17T23:51:19.241Z,98.45
2018-10-17T23:53:47.555Z,98.95
2018-10-17T23:56:16.038Z,99.11
2018-10-17T23:58:44.349Z,99.37
